sensor_id;sensor_type;location;lat;lon;timestamp;temperature;humidity
38500;DHT22;24269;51.894;4.622;2023-11-21T00:02:02;8.20;99.90
38500;DHT22;24269;51.894;4.622;2023-11-21T00:04:29;8.20;99.90
38500;DHT22;24269;51.894;4.622;2023-11-21T00:06:55;8.10;99.90
38500;DHT22;24269;51.894;4.622;2023-11-21T00:09:21;8.20;99.90
38500;DHT22;24269;51.894;4.622;2023-11-21T00:11:47;8.10;99.90
38500;DHT22;24269;51.894;4.622;2023-11-21T00:14:12;8.10;99.90
38500;DHT22;24269;51.894;4.622;2023-11-21T00:16:41;8.10;99.90
38500;DHT22;24269;51.894;4.622;2023-11-21T00:19:06;8.10;99.90
38500;DHT22;24269;51.894;4.622;2023-11-21T00:21:32;8.10;99.90
38500;DHT22;24269;51.894;4.622;2023-11-21T00:23:57;8.00;99.90
38500;DHT22;24269;51.894;4.622;2023-11-21T00:26:23;8.10;99.90
38500;DHT22;24269;51.894;4.622;2023-11-21T00:28:49;8.00;99.90
38500;DHT22;24269;51.894;4.622;2023-11-21T00:31:16;8.10;99.90
38500;DHT22;24269;51.894;4.622;2023-11-21T00:33:41;8.10;99.90
38500;DHT22;24269;51.894;4.622;2023-11-21T00:36:08;8.10;99.90
38500;DHT22;24269;51.894;4.622;2023-11-21T00:38:36;8.10;99.90
38500;DHT22;24269;51.894;4.622;2023-11-21T00:41:01;8.00;99.90
38500;DHT22;24269;51.894;4.622;2023-11-21T00:43:28;8.10;99.90
38500;DHT22;24269;51.894;4.622;2023-11-21T00:45:54;8.10;99.90
38500;DHT22;24269;51.894;4.622;2023-11-21T00:48:19;8.20;99.90
38500;DHT22;24269;51.894;4.622;2023-11-21T00:50:45;8.20;99.90
38500;DHT22;24269;51.894;4.622;2023-11-21T00:53:11;8.20;99.90
38500;DHT22;24269;51.894;4.622;2023-11-21T00:55:37;8.30;99.90
38500;DHT22;24269;51.894;4.622;2023-11-21T00:58:05;8.30;99.90
38500;DHT22;24269;51.894;4.622;2023-11-21T01:00:33;8.30;99.90
38500;DHT22;24269;51.894;4.622;2023-11-21T01:02:58;8.40;99.90
38500;DHT22;24269;51.894;4.622;2023-11-21T01:05:24;8.40;99.90
38500;DHT22;24269;51.894;4.622;2023-11-21T01:07:50;8.40;99.90
38500;DHT22;24269;51.894;4.622;2023-11-21T01:10:15;8.40;99.90
38500;DHT22;24269;51.894;4.622;2023-11-21T01:12:43;8.40;99.90
38500;DHT22;24269;51.894;4.622;2023-11-21T01:15:09;8.50;99.90
38500;DHT22;24269;51.894;4.622;2023-11-21T01:17:37;8.50;99.90
38500;DHT22;24269;51.894;4.622;2023-11-21T01:20:04;8.50;99.90
38500;DHT22;24269;51.894;4.622;2023-11-21T01:22:38;8.60;99.90
38500;DHT22;24269;51.894;4.622;2023-11-21T01:25:04;8.60;99.90
38500;DHT22;24269;51.894;4.622;2023-11-21T01:27:33;8.60;99.90
38500;DHT22;24269;51.894;4.622;2023-11-21T01:29:59;8.60;99.90
38500;DHT22;24269;51.894;4.622;2023-11-21T01:32:25;8.60;99.90
38500;DHT22;24269;51.894;4.622;2023-11-21T01:34:51;8.70;99.90
38500;DHT22;24269;51.894;4.622;2023-11-21T01:37:16;8.70;99.90
38500;DHT22;24269;51.894;4.622;2023-11-21T01:39:43;8.70;99.90
38500;DHT22;24269;51.894;4.622;2023-11-21T01:42:09;8.70;99.90
38500;DHT22;24269;51.894;4.622;2023-11-21T01:44:35;8.70;99.90
38500;DHT22;24269;51.894;4.622;2023-11-21T01:47:01;8.70;99.90
38500;DHT22;24269;51.894;4.622;2023-11-21T01:49:34;8.80;99.90
38500;DHT22;24269;51.894;4.622;2023-11-21T01:52:00;8.80;99.90
38500;DHT22;24269;51.894;4.622;2023-11-21T01:54:27;8.80;99.90
38500;DHT22;24269;51.894;4.622;2023-11-21T01:56:54;8.80;99.90
38500;DHT22;24269;51.894;4.622;2023-11-21T01:59:21;8.80;99.90
38500;DHT22;24269;51.894;4.622;2023-11-21T02:01:47;8.80;99.90
38500;DHT22;24269;51.894;4.622;2023-11-21T02:04:14;8.80;99.90
38500;DHT22;24269;51.894;4.622;2023-11-21T02:06:39;8.90;99.90
38500;DHT22;24269;51.894;4.622;2023-11-21T02:09:05;8.90;99.90
38500;DHT22;24269;51.894;4.622;2023-11-21T02:11:31;8.90;99.90
38500;DHT22;24269;51.894;4.622;2023-11-21T02:13:59;8.90;99.90
38500;DHT22;24269;51.894;4.622;2023-11-21T02:16:24;9.00;99.90
38500;DHT22;24269;51.894;4.622;2023-11-21T02:18:51;9.00;99.90
38500;DHT22;24269;51.894;4.622;2023-11-21T02:21:17;9.00;99.90
38500;DHT22;24269;51.894;4.622;2023-11-21T02:23:44;9.00;99.90
38500;DHT22;24269;51.894;4.622;2023-11-21T02:26:12;9.00;99.90
38500;DHT22;24269;51.894;4.622;2023-11-21T02:28:37;9.10;99.90
38500;DHT22;24269;51.894;4.622;2023-11-21T02:31:04;9.20;99.90
38500;DHT22;24269;51.894;4.622;2023-11-21T02:33:30;9.10;99.90
38500;DHT22;24269;51.894;4.622;2023-11-21T02:36:00;9.10;99.90
38500;DHT22;24269;51.894;4.622;2023-11-21T02:38:26;9.20;99.90
38500;DHT22;24269;51.894;4.622;2023-11-21T02:40:51;9.10;99.90
38500;DHT22;24269;51.894;4.622;2023-11-21T02:43:17;9.10;99.90
38500;DHT22;24269;51.894;4.622;2023-11-21T02:45:43;9.10;99.90
38500;DHT22;24269;51.894;4.622;2023-11-21T02:48:08;9.20;99.90
38500;DHT22;24269;51.894;4.622;2023-11-21T02:50:35;9.10;99.90
38500;DHT22;24269;51.894;4.622;2023-11-21T02:53:01;9.20;99.90
38500;DHT22;24269;51.894;4.622;2023-11-21T02:55:27;9.10;99.90
38500;DHT22;24269;51.894;4.622;2023-11-21T02:57:53;9.10;99.90
38500;DHT22;24269;51.894;4.622;2023-11-21T03:00:21;9.10;99.90
38500;DHT22;24269;51.894;4.622;2023-11-21T03:02:49;9.10;99.90
38500;DHT22;24269;51.894;4.622;2023-11-21T03:05:15;9.10;99.90
38500;DHT22;24269;51.894;4.622;2023-11-21T03:07:41;9.20;99.90
38500;DHT22;24269;51.894;4.622;2023-11-21T03:10:08;9.20;99.90
38500;DHT22;24269;51.894;4.622;2023-11-21T03:12:37;9.20;99.90
38500;DHT22;24269;51.894;4.622;2023-11-21T03:15:07;9.20;99.90
38500;DHT22;24269;51.894;4.622;2023-11-21T03:17:33;9.30;99.90
38500;DHT22;24269;51.894;4.622;2023-11-21T03:20:01;9.30;99.90
38500;DHT22;24269;51.894;4.622;2023-11-21T03:22:28;9.30;99.90
38500;DHT22;24269;51.894;4.622;2023-11-21T03:24:53;9.30;99.90
38500;DHT22;24269;51.894;4.622;2023-11-21T03:27:19;9.30;99.90
38500;DHT22;24269;51.894;4.622;2023-11-21T03:29:45;9.20;99.90
38500;DHT22;24269;51.894;4.622;2023-11-21T03:32:12;9.20;99.90
38500;DHT22;24269;51.894;4.622;2023-11-21T03:34:56;9.30;99.90
38500;DHT22;24269;51.894;4.622;2023-11-21T03:37:22;9.30;99.90
38500;DHT22;24269;51.894;4.622;2023-11-21T03:39:48;9.30;99.90
38500;DHT22;24269;51.894;4.622;2023-11-21T03:42:13;9.30;99.90
38500;DHT22;24269;51.894;4.622;2023-11-21T03:44:39;9.40;99.90
38500;DHT22;24269;51.894;4.622;2023-11-21T03:47:04;9.40;99.90
38500;DHT22;24269;51.894;4.622;2023-11-21T03:49:30;9.40;99.90
38500;DHT22;24269;51.894;4.622;2023-11-21T03:51:56;9.40;99.90
38500;DHT22;24269;51.894;4.622;2023-11-21T03:54:22;9.40;99.90
38500;DHT22;24269;51.894;4.622;2023-11-21T03:56:47;9.40;99.90
38500;DHT22;24269;51.894;4.622;2023-11-21T03:59:13;9.40;99.90
38500;DHT22;24269;51.894;4.622;2023-11-21T04:01:39;9.40;99.90
38500;DHT22;24269;51.894;4.622;2023-11-21T04:04:04;9.40;99.90
38500;DHT22;24269;51.894;4.622;2023-11-21T04:06:30;9.50;99.90
38500;DHT22;24269;51.894;4.622;2023-11-21T04:08:58;9.50;99.90
38500;DHT22;24269;51.894;4.622;2023-11-21T04:11:24;9.50;99.90
38500;DHT22;24269;51.894;4.622;2023-11-21T04:13:49;9.50;99.90
38500;DHT22;24269;51.894;4.622;2023-11-21T04:16:15;9.50;99.90
38500;DHT22;24269;51.894;4.622;2023-11-21T04:18:40;9.60;99.90
38500;DHT22;24269;51.894;4.622;2023-11-21T04:21:06;9.50;99.90
38500;DHT22;24269;51.894;4.622;2023-11-21T04:23:35;9.60;99.90
38500;DHT22;24269;51.894;4.622;2023-11-21T04:26:00;9.60;99.90
38500;DHT22;24269;51.894;4.622;2023-11-21T04:28:27;9.60;99.90
38500;DHT22;24269;51.894;4.622;2023-11-21T04:30:53;9.60;99.90
38500;DHT22;24269;51.894;4.622;2023-11-21T04:33:19;9.60;99.90
38500;DHT22;24269;51.894;4.622;2023-11-21T04:35:44;9.60;99.90
38500;DHT22;24269;51.894;4.622;2023-11-21T04:38:10;9.60;99.90
38500;DHT22;24269;51.894;4.622;2023-11-21T04:40:36;9.60;99.90
38500;DHT22;24269;51.894;4.622;2023-11-21T04:43:01;9.60;99.90
38500;DHT22;24269;51.894;4.622;2023-11-21T04:45:27;9.60;99.90
38500;DHT22;24269;51.894;4.622;2023-11-21T04:47:52;9.60;99.90
38500;DHT22;24269;51.894;4.622;2023-11-21T04:50:18;9.60;99.90
38500;DHT22;24269;51.894;4.622;2023-11-21T04:52:44;9.70;99.90
38500;DHT22;24269;51.894;4.622;2023-11-21T04:55:10;9.60;99.90
38500;DHT22;24269;51.894;4.622;2023-11-21T04:57:36;9.60;99.90
38500;DHT22;24269;51.894;4.622;2023-11-21T05:00:03;9.70;99.90
38500;DHT22;24269;51.894;4.622;2023-11-21T05:02:34;9.70;99.90
38500;DHT22;24269;51.894;4.622;2023-11-21T05:05:00;9.70;99.90
38500;DHT22;24269;51.894;4.622;2023-11-21T05:07:26;9.70;99.90
38500;DHT22;24269;51.894;4.622;2023-11-21T05:09:55;9.70;99.90
38500;DHT22;24269;51.894;4.622;2023-11-21T05:12:22;9.70;99.90
38500;DHT22;24269;51.894;4.622;2023-11-21T05:14:49;9.70;99.90
38500;DHT22;24269;51.894;4.622;2023-11-21T05:17:15;9.70;99.90
38500;DHT22;24269;51.894;4.622;2023-11-21T05:19:40;9.80;99.90
38500;DHT22;24269;51.894;4.622;2023-11-21T05:22:06;9.80;99.90
38500;DHT22;24269;51.894;4.622;2023-11-21T05:24:33;9.80;99.90
38500;DHT22;24269;51.894;4.622;2023-11-21T05:26:59;9.80;99.90
38500;DHT22;24269;51.894;4.622;2023-11-21T05:29:25;9.80;99.90
38500;DHT22;24269;51.894;4.622;2023-11-21T05:31:51;9.80;99.90
38500;DHT22;24269;51.894;4.622;2023-11-21T05:34:16;9.80;99.90
38500;DHT22;24269;51.894;4.622;2023-11-21T05:36:45;9.80;99.90
38500;DHT22;24269;51.894;4.622;2023-11-21T05:39:11;9.90;99.90
38500;DHT22;24269;51.894;4.622;2023-11-21T05:41:37;9.90;99.90
38500;DHT22;24269;51.894;4.622;2023-11-21T05:44:03;9.90;99.90
38500;DHT22;24269;51.894;4.622;2023-11-21T05:46:28;9.90;99.90
38500;DHT22;24269;51.894;4.622;2023-11-21T05:48:54;9.90;99.90
38500;DHT22;24269;51.894;4.622;2023-11-21T05:51:20;9.90;99.90
38500;DHT22;24269;51.894;4.622;2023-11-21T05:53:46;9.90;99.90
38500;DHT22;24269;51.894;4.622;2023-11-21T05:56:12;9.90;99.90
38500;DHT22;24269;51.894;4.622;2023-11-21T05:58:39;9.80;99.90
38500;DHT22;24269;51.894;4.622;2023-11-21T06:01:06;9.80;99.90
38500;DHT22;24269;51.894;4.622;2023-11-21T06:03:38;9.80;99.90
38500;DHT22;24269;51.894;4.622;2023-11-21T06:06:04;9.80;99.90
38500;DHT22;24269;51.894;4.622;2023-11-21T06:08:30;9.80;99.90
38500;DHT22;24269;51.894;4.622;2023-11-21T06:10:55;9.80;99.90
38500;DHT22;24269;51.894;4.622;2023-11-21T06:13:21;9.70;99.90
38500;DHT22;24269;51.894;4.622;2023-11-21T06:15:50;9.70;99.90
38500;DHT22;24269;51.894;4.622;2023-11-21T06:18:16;9.70;99.90
38500;DHT22;24269;51.894;4.622;2023-11-21T06:20:45;9.60;99.90
38500;DHT22;24269;51.894;4.622;2023-11-21T06:23:11;9.50;99.90
38500;DHT22;24269;51.894;4.622;2023-11-21T06:25:36;9.50;99.90
38500;DHT22;24269;51.894;4.622;2023-11-21T06:28:02;9.50;99.90
38500;DHT22;24269;51.894;4.622;2023-11-21T06:30:28;9.50;99.90
38500;DHT22;24269;51.894;4.622;2023-11-21T06:32:54;9.50;99.90
38500;DHT22;24269;51.894;4.622;2023-11-21T06:35:20;9.50;99.90
38500;DHT22;24269;51.894;4.622;2023-11-21T06:37:46;9.50;99.90
38500;DHT22;24269;51.894;4.622;2023-11-21T06:40:14;9.50;99.90
38500;DHT22;24269;51.894;4.622;2023-11-21T06:42:44;9.50;99.90
38500;DHT22;24269;51.894;4.622;2023-11-21T06:45:10;9.60;99.90
38500;DHT22;24269;51.894;4.622;2023-11-21T06:47:37;9.60;99.90
38500;DHT22;24269;51.894;4.622;2023-11-21T06:50:03;9.60;99.90
38500;DHT22;24269;51.894;4.622;2023-11-21T06:52:29;9.60;99.90
38500;DHT22;24269;51.894;4.622;2023-11-21T06:54:55;9.60;99.90
38500;DHT22;24269;51.894;4.622;2023-11-21T06:57:22;9.60;99.90
38500;DHT22;24269;51.894;4.622;2023-11-21T06:59:48;9.60;99.90
38500;DHT22;24269;51.894;4.622;2023-11-21T07:02:13;9.50;99.90
38500;DHT22;24269;51.894;4.622;2023-11-21T07:04:39;9.40;99.90
38500;DHT22;24269;51.894;4.622;2023-11-21T07:07:06;9.40;99.90
38500;DHT22;24269;51.894;4.622;2023-11-21T07:09:32;9.30;99.90
38500;DHT22;24269;51.894;4.622;2023-11-21T07:11:58;9.30;99.90
38500;DHT22;24269;51.894;4.622;2023-11-21T07:14:23;9.20;99.90
38500;DHT22;24269;51.894;4.622;2023-11-21T07:16:49;9.20;99.90
38500;DHT22;24269;51.894;4.622;2023-11-21T07:19:15;9.20;99.90
38500;DHT22;24269;51.894;4.622;2023-11-21T07:21:41;9.20;99.90
38500;DHT22;24269;51.894;4.622;2023-11-21T07:24:07;9.30;99.90
38500;DHT22;24269;51.894;4.622;2023-11-21T07:26:34;9.30;99.90
38500;DHT22;24269;51.894;4.622;2023-11-21T07:29:03;9.40;99.90
38500;DHT22;24269;51.894;4.622;2023-11-21T07:31:29;9.50;99.90
38500;DHT22;24269;51.894;4.622;2023-11-21T07:33:55;9.60;99.90
38500;DHT22;24269;51.894;4.622;2023-11-21T07:36:24;9.70;99.90
38500;DHT22;24269;51.894;4.622;2023-11-21T07:38:50;9.70;99.90
38500;DHT22;24269;51.894;4.622;2023-11-21T07:41:17;9.80;99.90
38500;DHT22;24269;51.894;4.622;2023-11-21T07:43:43;9.80;99.90
38500;DHT22;24269;51.894;4.622;2023-11-21T07:46:10;9.80;99.90
38500;DHT22;24269;51.894;4.622;2023-11-21T07:48:42;9.90;99.90
38500;DHT22;24269;51.894;4.622;2023-11-21T07:51:08;9.90;99.90
38500;DHT22;24269;51.894;4.622;2023-11-21T07:53:35;9.90;99.90
38500;DHT22;24269;51.894;4.622;2023-11-21T07:56:07;10.00;99.90
38500;DHT22;24269;51.894;4.622;2023-11-21T07:58:37;10.00;99.90
38500;DHT22;24269;51.894;4.622;2023-11-21T08:01:03;10.00;99.90
38500;DHT22;24269;51.894;4.622;2023-11-21T08:03:30;10.00;99.90
38500;DHT22;24269;51.894;4.622;2023-11-21T08:05:57;10.10;99.90
38500;DHT22;24269;51.894;4.622;2023-11-21T08:08:23;10.10;99.90
38500;DHT22;24269;51.894;4.622;2023-11-21T08:10:49;10.10;99.90
38500;DHT22;24269;51.894;4.622;2023-11-21T08:13:25;10.10;99.90
38500;DHT22;24269;51.894;4.622;2023-11-21T08:15:54;10.20;99.90
38500;DHT22;24269;51.894;4.622;2023-11-21T08:18:20;10.20;99.90
38500;DHT22;24269;51.894;4.622;2023-11-21T08:20:46;10.20;99.90
38500;DHT22;24269;51.894;4.622;2023-11-21T08:23:15;10.30;99.90
38500;DHT22;24269;51.894;4.622;2023-11-21T08:25:44;10.30;99.90
38500;DHT22;24269;51.894;4.622;2023-11-21T08:28:11;10.40;99.90
38500;DHT22;24269;51.894;4.622;2023-11-21T08:30:37;10.40;99.90
38500;DHT22;24269;51.894;4.622;2023-11-21T08:33:03;10.40;99.90
38500;DHT22;24269;51.894;4.622;2023-11-21T08:35:29;10.40;99.90
38500;DHT22;24269;51.894;4.622;2023-11-21T08:37:56;10.40;99.90
38500;DHT22;24269;51.894;4.622;2023-11-21T08:40:24;10.40;99.90
38500;DHT22;24269;51.894;4.622;2023-11-21T08:42:53;10.40;99.90
38500;DHT22;24269;51.894;4.622;2023-11-21T08:45:21;10.50;99.90
38500;DHT22;24269;51.894;4.622;2023-11-21T08:47:47;10.50;99.90
38500;DHT22;24269;51.894;4.622;2023-11-21T08:50:17;10.50;99.90
38500;DHT22;24269;51.894;4.622;2023-11-21T08:52:44;10.50;99.90
38500;DHT22;24269;51.894;4.622;2023-11-21T08:55:11;10.60;99.90
38500;DHT22;24269;51.894;4.622;2023-11-21T08:57:45;10.70;99.90
38500;DHT22;24269;51.894;4.622;2023-11-21T09:00:14;10.80;99.90
38500;DHT22;24269;51.894;4.622;2023-11-21T09:02:43;10.80;99.90
38500;DHT22;24269;51.894;4.622;2023-11-21T09:05:10;10.80;99.90
38500;DHT22;24269;51.894;4.622;2023-11-21T09:07:36;10.90;99.90
38500;DHT22;24269;51.894;4.622;2023-11-21T09:10:03;10.90;99.90
38500;DHT22;24269;51.894;4.622;2023-11-21T09:12:29;10.90;99.90
38500;DHT22;24269;51.894;4.622;2023-11-21T09:15:03;11.00;99.90
38500;DHT22;24269;51.894;4.622;2023-11-21T09:17:31;11.10;99.90
38500;DHT22;24269;51.894;4.622;2023-11-21T09:19:57;11.10;99.90
38500;DHT22;24269;51.894;4.622;2023-11-21T09:22:22;11.10;99.90
38500;DHT22;24269;51.894;4.622;2023-11-21T09:24:50;11.10;99.90
38500;DHT22;24269;51.894;4.622;2023-11-21T09:27:16;11.10;99.90
38500;DHT22;24269;51.894;4.622;2023-11-21T09:29:43;11.10;99.90
38500;DHT22;24269;51.894;4.622;2023-11-21T09:32:08;11.10;99.90
38500;DHT22;24269;51.894;4.622;2023-11-21T09:34:38;11.10;99.90
38500;DHT22;24269;51.894;4.622;2023-11-21T09:37:04;11.10;99.90
38500;DHT22;24269;51.894;4.622;2023-11-21T09:39:34;11.10;99.90
38500;DHT22;24269;51.894;4.622;2023-11-21T09:42:10;11.00;99.90
38500;DHT22;24269;51.894;4.622;2023-11-21T09:47:15;11.10;99.90
38500;DHT22;24269;51.894;4.622;2023-11-21T09:49:48;11.10;99.90
38500;DHT22;24269;51.894;4.622;2023-11-21T09:52:25;11.00;99.90
38500;DHT22;24269;51.894;4.622;2023-11-21T09:54:53;11.00;99.90
38500;DHT22;24269;51.894;4.622;2023-11-21T09:57:23;11.00;99.90
38500;DHT22;24269;51.894;4.622;2023-11-21T09:59:54;11.00;99.90
38500;DHT22;24269;51.894;4.622;2023-11-21T10:02:28;11.10;99.90
38500;DHT22;24269;51.894;4.622;2023-11-21T10:05:00;11.10;99.90
38500;DHT22;24269;51.894;4.622;2023-11-21T10:07:26;11.10;99.90
38500;DHT22;24269;51.894;4.622;2023-11-21T10:09:54;11.20;99.90
38500;DHT22;24269;51.894;4.622;2023-11-21T10:12:22;11.10;99.90
38500;DHT22;24269;51.894;4.622;2023-11-21T10:14:50;11.10;99.90
38500;DHT22;24269;51.894;4.622;2023-11-21T10:17:18;11.10;99.90
38500;DHT22;24269;51.894;4.622;2023-11-21T10:19:46;11.00;99.90
38500;DHT22;24269;51.894;4.622;2023-11-21T10:22:14;11.00;99.90
38500;DHT22;24269;51.894;4.622;2023-11-21T10:24:40;11.00;99.90
38500;DHT22;24269;51.894;4.622;2023-11-21T10:27:08;11.00;99.90
38500;DHT22;24269;51.894;4.622;2023-11-21T10:29:34;11.00;99.90
38500;DHT22;24269;51.894;4.622;2023-11-21T10:32:02;11.00;99.90
38500;DHT22;24269;51.894;4.622;2023-11-21T10:34:31;10.90;99.90
38500;DHT22;24269;51.894;4.622;2023-11-21T10:37:07;10.90;99.90
38500;DHT22;24269;51.894;4.622;2023-11-21T10:39:36;10.90;99.90
38500;DHT22;24269;51.894;4.622;2023-11-21T10:42:10;10.80;99.90
38500;DHT22;24269;51.894;4.622;2023-11-21T10:44:36;10.80;99.90
38500;DHT22;24269;51.894;4.622;2023-11-21T10:47:03;10.80;99.90
38500;DHT22;24269;51.894;4.622;2023-11-21T10:49:29;10.80;99.90
38500;DHT22;24269;51.894;4.622;2023-11-21T10:51:55;10.80;99.90
38500;DHT22;24269;51.894;4.622;2023-11-21T10:54:22;10.80;99.90
38500;DHT22;24269;51.894;4.622;2023-11-21T10:56:57;10.70;99.90
38500;DHT22;24269;51.894;4.622;2023-11-21T10:59:25;10.80;99.90
38500;DHT22;24269;51.894;4.622;2023-11-21T11:01:51;10.70;99.90
38500;DHT22;24269;51.894;4.622;2023-11-21T11:04:20;10.70;99.90
38500;DHT22;24269;51.894;4.622;2023-11-21T11:06:54;10.70;99.90
38500;DHT22;24269;51.894;4.622;2023-11-21T11:09:20;10.70;99.90
38500;DHT22;24269;51.894;4.622;2023-11-21T11:11:46;10.70;99.90
38500;DHT22;24269;51.894;4.622;2023-11-21T11:14:12;10.70;99.90
38500;DHT22;24269;51.894;4.622;2023-11-21T11:16:41;10.70;99.90
38500;DHT22;24269;51.894;4.622;2023-11-21T11:19:08;10.70;99.90
38500;DHT22;24269;51.894;4.622;2023-11-21T11:24:43;10.70;99.90
38500;DHT22;24269;51.894;4.622;2023-11-21T11:30:50;10.70;99.90
38500;DHT22;24269;51.894;4.622;2023-11-21T11:36:17;10.80;99.90
38500;DHT22;24269;51.894;4.622;2023-11-21T11:38:47;10.80;99.90
38500;DHT22;24269;51.894;4.622;2023-11-21T11:41:27;10.70;99.90
38500;DHT22;24269;51.894;4.622;2023-11-21T11:43:54;10.80;99.90
38500;DHT22;24269;51.894;4.622;2023-11-21T11:46:19;10.80;99.90
38500;DHT22;24269;51.894;4.622;2023-11-21T11:48:49;10.80;99.90
38500;DHT22;24269;51.894;4.622;2023-11-21T11:51:28;10.80;99.90
38500;DHT22;24269;51.894;4.622;2023-11-21T11:53:54;10.80;99.90
38500;DHT22;24269;51.894;4.622;2023-11-21T11:58:57;10.90;99.90
38500;DHT22;24269;51.894;4.622;2023-11-21T12:01:27;10.90;99.90
38500;DHT22;24269;51.894;4.622;2023-11-21T12:07:00;10.90;99.90
38500;DHT22;24269;51.894;4.622;2023-11-21T12:09:31;10.90;99.90
38500;DHT22;24269;51.894;4.622;2023-11-21T12:11:57;10.90;99.90
38500;DHT22;24269;51.894;4.622;2023-11-21T12:14:26;10.90;99.90
38500;DHT22;24269;51.894;4.622;2023-11-21T12:16:53;10.80;99.90
38500;DHT22;24269;51.894;4.622;2023-11-21T12:19:20;10.90;99.90
38500;DHT22;24269;51.894;4.622;2023-11-21T12:21:46;10.90;99.90
38500;DHT22;24269;51.894;4.622;2023-11-21T12:24:16;10.90;99.90
38500;DHT22;24269;51.894;4.622;2023-11-21T12:26:43;10.90;99.90
38500;DHT22;24269;51.894;4.622;2023-11-21T12:29:09;10.90;99.90
38500;DHT22;24269;51.894;4.622;2023-11-21T12:31:36;10.90;99.90
38500;DHT22;24269;51.894;4.622;2023-11-21T12:34:02;10.90;99.90
38500;DHT22;24269;51.894;4.622;2023-11-21T12:36:27;10.90;99.90
38500;DHT22;24269;51.894;4.622;2023-11-21T12:38:55;10.80;99.90
38500;DHT22;24269;51.894;4.622;2023-11-21T12:41:24;10.80;99.90
38500;DHT22;24269;51.894;4.622;2023-11-21T12:43:50;10.80;99.90
38500;DHT22;24269;51.894;4.622;2023-11-21T12:46:16;10.80;99.90
38500;DHT22;24269;51.894;4.622;2023-11-21T12:48:44;10.80;99.90
38500;DHT22;24269;51.894;4.622;2023-11-21T12:51:11;10.80;99.90
38500;DHT22;24269;51.894;4.622;2023-11-21T12:53:39;10.80;99.90
38500;DHT22;24269;51.894;4.622;2023-11-21T12:56:12;10.80;99.90
38500;DHT22;24269;51.894;4.622;2023-11-21T12:58:44;10.80;99.90
38500;DHT22;24269;51.894;4.622;2023-11-21T13:01:13;10.70;99.90
38500;DHT22;24269;51.894;4.622;2023-11-21T13:03:50;10.70;99.90
38500;DHT22;24269;51.894;4.622;2023-11-21T13:06:19;10.60;99.90
38500;DHT22;24269;51.894;4.622;2023-11-21T13:08:47;10.60;99.90
38500;DHT22;24269;51.894;4.622;2023-11-21T13:11:13;10.60;99.90
38500;DHT22;24269;51.894;4.622;2023-11-21T13:13:43;10.60;99.90
38500;DHT22;24269;51.894;4.622;2023-11-21T13:16:09;10.60;99.90
38500;DHT22;24269;51.894;4.622;2023-11-21T13:18:35;10.60;99.90
38500;DHT22;24269;51.894;4.622;2023-11-21T13:21:04;10.60;99.90
38500;DHT22;24269;51.894;4.622;2023-11-21T13:23:43;10.60;99.90
38500;DHT22;24269;51.894;4.622;2023-11-21T13:26:15;10.60;99.90
38500;DHT22;24269;51.894;4.622;2023-11-21T13:28:44;10.60;99.90
38500;DHT22;24269;51.894;4.622;2023-11-21T13:31:13;10.70;99.90
38500;DHT22;24269;51.894;4.622;2023-11-21T13:33:52;10.70;99.90
38500;DHT22;24269;51.894;4.622;2023-11-21T13:36:24;10.70;99.90
38500;DHT22;24269;51.894;4.622;2023-11-21T13:38:51;10.70;99.90
38500;DHT22;24269;51.894;4.622;2023-11-21T13:41:20;10.70;99.90
38500;DHT22;24269;51.894;4.622;2023-11-21T13:43:47;10.70;99.90
38500;DHT22;24269;51.894;4.622;2023-11-21T13:46:22;10.70;99.90
38500;DHT22;24269;51.894;4.622;2023-11-21T13:48:49;10.70;99.90
38500;DHT22;24269;51.894;4.622;2023-11-21T13:51:25;10.60;99.90
38500;DHT22;24269;51.894;4.622;2023-11-21T13:54:04;10.60;99.90
38500;DHT22;24269;51.894;4.622;2023-11-21T13:56:35;10.60;99.90
38500;DHT22;24269;51.894;4.622;2023-11-21T13:59:07;10.50;99.90
38500;DHT22;24269;51.894;4.622;2023-11-21T14:01:46;10.50;99.90
38500;DHT22;24269;51.894;4.622;2023-11-21T14:04:22;10.50;99.90
38500;DHT22;24269;51.894;4.622;2023-11-21T14:07:06;10.50;99.90
38500;DHT22;24269;51.894;4.622;2023-11-21T14:09:51;10.50;99.90
38500;DHT22;24269;51.894;4.622;2023-11-21T14:12:18;10.50;99.90
38500;DHT22;24269;51.894;4.622;2023-11-21T14:14:44;10.40;99.90
38500;DHT22;24269;51.894;4.622;2023-11-21T14:17:13;10.40;99.90
38500;DHT22;24269;51.894;4.622;2023-11-21T14:19:39;10.40;99.90
38500;DHT22;24269;51.894;4.622;2023-11-21T14:22:10;10.40;99.90
38500;DHT22;24269;51.894;4.622;2023-11-21T14:24:40;10.40;99.90
38500;DHT22;24269;51.894;4.622;2023-11-21T14:27:12;10.40;99.90
38500;DHT22;24269;51.894;4.622;2023-11-21T14:29:38;10.40;99.90
38500;DHT22;24269;51.894;4.622;2023-11-21T14:32:07;10.30;99.90
38500;DHT22;24269;51.894;4.622;2023-11-21T14:34:33;10.30;99.90
38500;DHT22;24269;51.894;4.622;2023-11-21T14:36:59;10.30;99.90
38500;DHT22;24269;51.894;4.622;2023-11-21T14:39:24;10.20;99.90
38500;DHT22;24269;51.894;4.622;2023-11-21T14:41:53;10.20;99.90
38500;DHT22;24269;51.894;4.622;2023-11-21T14:44:25;10.20;99.90
38500;DHT22;24269;51.894;4.622;2023-11-21T14:46:54;10.20;99.90
38500;DHT22;24269;51.894;4.622;2023-11-21T14:49:22;10.20;99.90
38500;DHT22;24269;51.894;4.622;2023-11-21T14:51:52;10.10;99.90
38500;DHT22;24269;51.894;4.622;2023-11-21T14:54:43;10.10;99.90
38500;DHT22;24269;51.894;4.622;2023-11-21T14:57:14;10.10;99.90
38500;DHT22;24269;51.894;4.622;2023-11-21T14:59:48;10.10;99.90
38500;DHT22;24269;51.894;4.622;2023-11-21T15:02:18;10.10;99.90
38500;DHT22;24269;51.894;4.622;2023-11-21T15:04:48;10.00;99.90
38500;DHT22;24269;51.894;4.622;2023-11-21T15:07:18;10.00;99.90
38500;DHT22;24269;51.894;4.622;2023-11-21T15:09:44;10.00;99.90
38500;DHT22;24269;51.894;4.622;2023-11-21T15:12:12;10.00;99.90
38500;DHT22;24269;51.894;4.622;2023-11-21T15:14:42;10.00;99.90
38500;DHT22;24269;51.894;4.622;2023-11-21T15:17:08;10.00;99.90
38500;DHT22;24269;51.894;4.622;2023-11-21T15:19:37;9.90;99.90
38500;DHT22;24269;51.894;4.622;2023-11-21T15:22:07;9.90;99.90
38500;DHT22;24269;51.894;4.622;2023-11-21T15:24:33;9.90;99.90
38500;DHT22;24269;51.894;4.622;2023-11-21T15:26:58;9.90;99.90
38500;DHT22;24269;51.894;4.622;2023-11-21T15:29:27;9.90;99.90
38500;DHT22;24269;51.894;4.622;2023-11-21T15:31:53;9.80;99.90
38500;DHT22;24269;51.894;4.622;2023-11-21T15:34:21;9.80;99.90
38500;DHT22;24269;51.894;4.622;2023-11-21T15:36:47;9.80;99.90
38500;DHT22;24269;51.894;4.622;2023-11-21T15:39:16;9.90;99.90
38500;DHT22;24269;51.894;4.622;2023-11-21T15:41:41;9.80;99.90
38500;DHT22;24269;51.894;4.622;2023-11-21T15:44:07;9.80;99.90
38500;DHT22;24269;51.894;4.622;2023-11-21T15:46:36;9.80;99.90
38500;DHT22;24269;51.894;4.622;2023-11-21T15:49:03;9.80;99.90
38500;DHT22;24269;51.894;4.622;2023-11-21T15:51:42;9.80;99.90
38500;DHT22;24269;51.894;4.622;2023-11-21T15:54:10;9.70;99.90
38500;DHT22;24269;51.894;4.622;2023-11-21T15:56:36;9.70;99.90
38500;DHT22;24269;51.894;4.622;2023-11-21T15:59:03;9.70;99.90
38500;DHT22;24269;51.894;4.622;2023-11-21T16:01:30;9.70;99.90